This demonstration page uses our WeatherBlox Daily Observations layout. Learn more.

39.29038, -76.61219

Hourly Observations for April 12, 2019

Temp ( °F °C ) Dew Point ( °F °C ) Humidity (%) Winds ( mph kmh ) Pressure ( in mb ) Visibility ( mi km ) Precip ( " mm )
12:54 am 00:54 undefined 49 9.4 41 5 74 74 undefined N/A 30.21 1023 N/A 0 0
1:54 am 01:54 undefined 49 9.4 41 5 74 74 undefined N/A 30.2 1023 N/A 0 0
2:54 am 02:54 undefined 49 9.4 40 4.4 71 71 undefined N/A 30.19 1022 N/A 0 0
3:54 am 03:54 undefined 49 9.4 41 5 74 74 undefined N/A 30.19 1022 N/A 0 0
4:54 am 04:54 undefined 49 9.4 42 5.6 77 77 undefined N/A 30.17 1022 N/A 0 0
5:54 am 05:54 undefined 49 9.4 42 5.6 77 77 undefined N/A 30.17 1022 N/A 0 0
6:54 am 06:54 undefined 49 9.4 41 5 74 74 undefined N/A 30.19 1022 N/A 0 0
7:54 am 07:54 undefined 50 10 43 6.1 77 77 undefined N/A 30.2 1023 N/A 0 0
8:54 am 08:54 undefined 53 11.7 45 7.2 74 74 undefined N/A 30.2 1023 N/A 0 0
9:54 am 09:54 undefined 56 13.3 48 8.9 75 75 undefined N/A 30.2 1023 N/A 0 0
10:54 am 10:54 undefined 62 16.7 52 11.1 70 70 undefined N/A 30.19 1022 N/A 0 0
11:54 am 11:54 undefined 67 19.4 55 12.8 66 66 undefined N/A 30.16 1021 N/A 0 0
12:54 pm 12:54 undefined 71 21.7 56 13.3 59 59 undefined N/A 30.13 1020 N/A 0 0
1:54 pm 13:54 undefined 67 19.4 58 14.4 73 73 undefined N/A 30.13 1020 N/A 0.01 0.254
2:54 pm 14:54 undefined 64 17.8 60 15.6 87 87 undefined N/A 30.13 1020 N/A 0.02 0.508
3:54 pm 15:54 undefined 66 18.9 59 15 78 78 undefined N/A 30.09 1019 N/A 0.01 0.254
4:54 pm 16:54 undefined 66 18.9 58 14.4 75 75 undefined N/A 30.08 1019 N/A 0 0
5:54 pm 17:54 undefined 65 18.3 59 15 81 81 undefined N/A 30.08 1019 N/A 0 0
6:54 pm 18:54 undefined 65 18.3 58 14.4 78 78 undefined N/A 30.08 1019 N/A 0 0
7:54 pm 19:54 undefined 65 18.3 58 14.4 78 78 undefined N/A 30.08 1019 N/A 0 0
8:54 pm 20:54 undefined 65 18.3 58 14.4 78 78 undefined N/A 30.09 1019 N/A 0 0
9:54 pm 21:54 undefined 63 17.2 58 14.4 84 84 undefined N/A 30.1 1019 N/A 0.02 0.508
10:54 pm 22:54 undefined 63 17.2 57 13.9 81 81 undefined N/A 30.07 1018 N/A 0 0
11:54 pm 23:54 undefined 63 17.2 57 13.9 81 81 undefined N/A 30.05 1018 N/A 0 0

Powered by AerisWeather